sensor_id;sensor_type;location;lat;lon;timestamp;temperature;humidity
35541;DHT22;21650;48.840;9.162;2023-03-31T00:00:43;11.70;99.90
35541;DHT22;21650;48.840;9.162;2023-03-31T00:03:08;11.70;99.90
35541;DHT22;21650;48.840;9.162;2023-03-31T00:05:46;11.60;99.90
35541;DHT22;21650;48.840;9.162;2023-03-31T00:08:13;11.60;99.90
35541;DHT22;21650;48.840;9.162;2023-03-31T00:10:44;11.50;99.90
35541;DHT22;21650;48.840;9.162;2023-03-31T00:13:11;11.50;99.90
35541;DHT22;21650;48.840;9.162;2023-03-31T00:15:37;11.40;99.90
35541;DHT22;21650;48.840;9.162;2023-03-31T00:18:02;11.40;99.90
35541;DHT22;21650;48.840;9.162;2023-03-31T00:20:28;11.40;99.90
35541;DHT22;21650;48.840;9.162;2023-03-31T00:22:54;11.40;99.90
35541;DHT22;21650;48.840;9.162;2023-03-31T00:25:22;11.40;99.90
35541;DHT22;21650;48.840;9.162;2023-03-31T00:27:48;11.50;99.90
35541;DHT22;21650;48.840;9.162;2023-03-31T00:30:17;11.50;99.90
35541;DHT22;21650;48.840;9.162;2023-03-31T00:32:43;11.50;99.90
35541;DHT22;21650;48.840;9.162;2023-03-31T00:35:09;11.60;99.90
35541;DHT22;21650;48.840;9.162;2023-03-31T00:37:35;11.60;99.90
35541;DHT22;21650;48.840;9.162;2023-03-31T00:40:00;11.60;99.90
35541;DHT22;21650;48.840;9.162;2023-03-31T00:42:26;11.70;99.90
35541;DHT22;21650;48.840;9.162;2023-03-31T00:47:46;11.80;99.90
35541;DHT22;21650;48.840;9.162;2023-03-31T00:50:20;11.80;99.90
35541;DHT22;21650;48.840;9.162;2023-03-31T00:52:48;11.80;99.90
35541;DHT22;21650;48.840;9.162;2023-03-31T00:55:21;11.80;99.90
35541;DHT22;21650;48.840;9.162;2023-03-31T00:57:50;11.80;99.90
35541;DHT22;21650;48.840;9.162;2023-03-31T01:00:18;11.80;99.90
35541;DHT22;21650;48.840;9.162;2023-03-31T01:02:48;11.80;99.90
35541;DHT22;21650;48.840;9.162;2023-03-31T01:05:20;11.80;99.90
35541;DHT22;21650;48.840;9.162;2023-03-31T01:07:47;11.90;99.90
35541;DHT22;21650;48.840;9.162;2023-03-31T01:10:14;11.90;99.90
35541;DHT22;21650;48.840;9.162;2023-03-31T01:12:44;11.90;99.90
35541;DHT22;21650;48.840;9.162;2023-03-31T01:15:11;12.10;99.90
35541;DHT22;21650;48.840;9.162;2023-03-31T01:17:37;12.10;99.90
35541;DHT22;21650;48.840;9.162;2023-03-31T01:20:38;12.10;99.90
35541;DHT22;21650;48.840;9.162;2023-03-31T01:23:24;12.10;99.90
35541;DHT22;21650;48.840;9.162;2023-03-31T01:26:19;12.10;99.90
35541;DHT22;21650;48.840;9.162;2023-03-31T01:32:00;12.10;99.90
35541;DHT22;21650;48.840;9.162;2023-03-31T01:34:48;12.10;99.90
35541;DHT22;21650;48.840;9.162;2023-03-31T01:37:42;12.20;99.90
35541;DHT22;21650;48.840;9.162;2023-03-31T01:42:53;12.20;99.90
35541;DHT22;21650;48.840;9.162;2023-03-31T01:48:12;12.20;99.90
35541;DHT22;21650;48.840;9.162;2023-03-31T01:50:58;12.10;99.90
35541;DHT22;21650;48.840;9.162;2023-03-31T01:53:30;12.10;99.90
35541;DHT22;21650;48.840;9.162;2023-03-31T01:56:11;12.10;99.90
35541;DHT22;21650;48.840;9.162;2023-03-31T02:01:58;12.40;99.90
35541;DHT22;21650;48.840;9.162;2023-03-31T02:04:38;12.40;99.90
35541;DHT22;21650;48.840;9.162;2023-03-31T02:07:23;12.40;99.90
35541;DHT22;21650;48.840;9.162;2023-03-31T02:09:56;12.40;99.90
35541;DHT22;21650;48.840;9.162;2023-03-31T02:12:25;12.40;99.90
35541;DHT22;21650;48.840;9.162;2023-03-31T02:14:53;12.30;99.90
35541;DHT22;21650;48.840;9.162;2023-03-31T02:17:22;12.30;99.90
35541;DHT22;21650;48.840;9.162;2023-03-31T02:19:57;12.20;99.90
35541;DHT22;21650;48.840;9.162;2023-03-31T02:22:24;12.10;99.90
35541;DHT22;21650;48.840;9.162;2023-03-31T02:24:52;12.10;99.90
35541;DHT22;21650;48.840;9.162;2023-03-31T02:27:25;12.00;99.90
35541;DHT22;21650;48.840;9.162;2023-03-31T02:29:53;11.90;99.90
35541;DHT22;21650;48.840;9.162;2023-03-31T02:32:24;11.80;99.90
35541;DHT22;21650;48.840;9.162;2023-03-31T02:34:50;11.70;99.90
35541;DHT22;21650;48.840;9.162;2023-03-31T02:37:16;11.70;99.90
35541;DHT22;21650;48.840;9.162;2023-03-31T02:39:44;11.60;99.90
35541;DHT22;21650;48.840;9.162;2023-03-31T02:42:11;11.60;99.90
35541;DHT22;21650;48.840;9.162;2023-03-31T02:44:38;11.60;99.90
35541;DHT22;21650;48.840;9.162;2023-03-31T02:47:06;11.50;99.90
35541;DHT22;21650;48.840;9.162;2023-03-31T02:49:33;11.50;99.90
35541;DHT22;21650;48.840;9.162;2023-03-31T02:52:57;11.50;99.90
35541;DHT22;21650;48.840;9.162;2023-03-31T02:55:26;11.40;99.90
35541;DHT22;21650;48.840;9.162;2023-03-31T02:58:25;11.40;99.90
35541;DHT22;21650;48.840;9.162;2023-03-31T03:01:14;11.40;99.90
35541;DHT22;21650;48.840;9.162;2023-03-31T03:12:41;11.30;99.90
35541;DHT22;21650;48.840;9.162;2023-03-31T03:17:57;11.20;99.90
35541;DHT22;21650;48.840;9.162;2023-03-31T03:20:23;11.20;99.90
35541;DHT22;21650;48.840;9.162;2023-03-31T03:22:48;11.20;99.90
35541;DHT22;21650;48.840;9.162;2023-03-31T03:25:14;11.20;99.90
35541;DHT22;21650;48.840;9.162;2023-03-31T03:27:45;11.10;99.90
35541;DHT22;21650;48.840;9.162;2023-03-31T03:30:12;11.10;99.90
35541;DHT22;21650;48.840;9.162;2023-03-31T03:32:38;11.10;99.90
35541;DHT22;21650;48.840;9.162;2023-03-31T03:35:04;11.00;99.90
35541;DHT22;21650;48.840;9.162;2023-03-31T03:37:31;11.00;99.90
35541;DHT22;21650;48.840;9.162;2023-03-31T03:39:56;11.00;99.90
35541;DHT22;21650;48.840;9.162;2023-03-31T03:42:22;11.00;99.90
35541;DHT22;21650;48.840;9.162;2023-03-31T03:44:47;11.00;99.90
35541;DHT22;21650;48.840;9.162;2023-03-31T03:47:13;11.00;99.90
35541;DHT22;21650;48.840;9.162;2023-03-31T03:49:39;11.00;99.90
35541;DHT22;21650;48.840;9.162;2023-03-31T03:52:05;11.00;99.90
35541;DHT22;21650;48.840;9.162;2023-03-31T03:54:31;11.00;99.90
35541;DHT22;21650;48.840;9.162;2023-03-31T03:56:57;11.00;99.90
35541;DHT22;21650;48.840;9.162;2023-03-31T03:59:22;11.10;99.90
35541;DHT22;21650;48.840;9.162;2023-03-31T04:01:48;11.00;99.90
35541;DHT22;21650;48.840;9.162;2023-03-31T04:04:14;10.90;99.90
35541;DHT22;21650;48.840;9.162;2023-03-31T04:06:39;10.90;99.90
35541;DHT22;21650;48.840;9.162;2023-03-31T04:09:05;10.90;99.90
35541;DHT22;21650;48.840;9.162;2023-03-31T04:11:30;10.80;99.90
35541;DHT22;21650;48.840;9.162;2023-03-31T04:13:56;10.80;99.90
35541;DHT22;21650;48.840;9.162;2023-03-31T04:16:22;10.70;99.90
35541;DHT22;21650;48.840;9.162;2023-03-31T04:18:52;10.70;99.90
35541;DHT22;21650;48.840;9.162;2023-03-31T04:21:21;10.70;99.90
35541;DHT22;21650;48.840;9.162;2023-03-31T04:23:49;10.70;99.90
35541;DHT22;21650;48.840;9.162;2023-03-31T04:26:17;10.60;99.90
35541;DHT22;21650;48.840;9.162;2023-03-31T04:28:43;10.70;99.90
35541;DHT22;21650;48.840;9.162;2023-03-31T04:31:12;10.70;99.90
35541;DHT22;21650;48.840;9.162;2023-03-31T04:33:50;10.70;99.90
35541;DHT22;21650;48.840;9.162;2023-03-31T04:36:16;10.70;99.90
35541;DHT22;21650;48.840;9.162;2023-03-31T04:38:43;10.70;99.90
35541;DHT22;21650;48.840;9.162;2023-03-31T04:41:14;10.80;99.90
35541;DHT22;21650;48.840;9.162;2023-03-31T04:43:40;10.70;99.90
35541;DHT22;21650;48.840;9.162;2023-03-31T04:46:05;10.80;99.90
35541;DHT22;21650;48.840;9.162;2023-03-31T04:50:59;10.80;99.90
35541;DHT22;21650;48.840;9.162;2023-03-31T04:53:24;10.80;99.90
35541;DHT22;21650;48.840;9.162;2023-03-31T04:55:51;10.80;99.90
35541;DHT22;21650;48.840;9.162;2023-03-31T04:58:16;10.80;99.90
35541;DHT22;21650;48.840;9.162;2023-03-31T05:00:42;10.80;99.90
35541;DHT22;21650;48.840;9.162;2023-03-31T05:03:07;10.80;99.90
35541;DHT22;21650;48.840;9.162;2023-03-31T05:05:34;10.80;99.90
35541;DHT22;21650;48.840;9.162;2023-03-31T05:08:00;10.80;99.90
35541;DHT22;21650;48.840;9.162;2023-03-31T05:10:25;10.80;99.90
35541;DHT22;21650;48.840;9.162;2023-03-31T05:12:51;10.80;99.90
35541;DHT22;21650;48.840;9.162;2023-03-31T05:15:16;10.80;99.90
35541;DHT22;21650;48.840;9.162;2023-03-31T05:17:42;10.80;99.90
35541;DHT22;21650;48.840;9.162;2023-03-31T05:20:09;10.80;99.90
35541;DHT22;21650;48.840;9.162;2023-03-31T05:22:36;10.70;99.90
35541;DHT22;21650;48.840;9.162;2023-03-31T05:25:04;10.70;99.90
35541;DHT22;21650;48.840;9.162;2023-03-31T05:27:30;10.70;99.90
35541;DHT22;21650;48.840;9.162;2023-03-31T05:29:55;10.70;99.90
35541;DHT22;21650;48.840;9.162;2023-03-31T05:32:21;10.70;99.90
35541;DHT22;21650;48.840;9.162;2023-03-31T05:34:46;10.70;99.90
35541;DHT22;21650;48.840;9.162;2023-03-31T05:37:12;10.60;99.90
35541;DHT22;21650;48.840;9.162;2023-03-31T05:39:38;10.50;99.90
35541;DHT22;21650;48.840;9.162;2023-03-31T05:42:03;10.50;99.90
35541;DHT22;21650;48.840;9.162;2023-03-31T05:44:30;10.40;99.90
35541;DHT22;21650;48.840;9.162;2023-03-31T05:46:55;10.40;99.90
35541;DHT22;21650;48.840;9.162;2023-03-31T05:49:21;10.30;99.90
35541;DHT22;21650;48.840;9.162;2023-03-31T05:51:47;10.30;99.90
35541;DHT22;21650;48.840;9.162;2023-03-31T05:54:12;10.30;99.90
35541;DHT22;21650;48.840;9.162;2023-03-31T05:56:38;10.20;99.90
35541;DHT22;21650;48.840;9.162;2023-03-31T05:59:04;10.20;99.90
35541;DHT22;21650;48.840;9.162;2023-03-31T06:01:29;10.20;99.90
35541;DHT22;21650;48.840;9.162;2023-03-31T06:03:55;10.20;99.90
35541;DHT22;21650;48.840;9.162;2023-03-31T06:06:21;10.20;99.90
35541;DHT22;21650;48.840;9.162;2023-03-31T06:08:48;10.10;99.90
35541;DHT22;21650;48.840;9.162;2023-03-31T06:11:16;10.10;99.90
35541;DHT22;21650;48.840;9.162;2023-03-31T06:13:44;10.10;99.90
35541;DHT22;21650;48.840;9.162;2023-03-31T06:16:11;10.10;99.90
35541;DHT22;21650;48.840;9.162;2023-03-31T06:18:37;10.10;99.90
35541;DHT22;21650;48.840;9.162;2023-03-31T06:21:03;10.10;99.90
35541;DHT22;21650;48.840;9.162;2023-03-31T06:23:29;10.10;99.90
35541;DHT22;21650;48.840;9.162;2023-03-31T06:26:03;10.10;99.90
35541;DHT22;21650;48.840;9.162;2023-03-31T06:28:29;10.10;99.90
35541;DHT22;21650;48.840;9.162;2023-03-31T06:31:06;10.10;99.90
35541;DHT22;21650;48.840;9.162;2023-03-31T06:33:33;10.20;99.90
35541;DHT22;21650;48.840;9.162;2023-03-31T06:35:59;10.10;99.90
35541;DHT22;21650;48.840;9.162;2023-03-31T06:38:26;10.10;99.90
35541;DHT22;21650;48.840;9.162;2023-03-31T06:40:52;10.10;99.90
35541;DHT22;21650;48.840;9.162;2023-03-31T06:43:18;10.10;99.90
35541;DHT22;21650;48.840;9.162;2023-03-31T06:45:43;10.20;99.90
35541;DHT22;21650;48.840;9.162;2023-03-31T06:48:09;10.10;99.90
35541;DHT22;21650;48.840;9.162;2023-03-31T06:50:37;10.10;99.90
35541;DHT22;21650;48.840;9.162;2023-03-31T06:53:03;10.10;99.90
35541;DHT22;21650;48.840;9.162;2023-03-31T06:55:29;10.10;99.90
35541;DHT22;21650;48.840;9.162;2023-03-31T06:57:54;10.10;99.90
35541;DHT22;21650;48.840;9.162;2023-03-31T07:00:20;10.10;99.90
35541;DHT22;21650;48.840;9.162;2023-03-31T07:02:46;10.10;99.90
35541;DHT22;21650;48.840;9.162;2023-03-31T07:05:12;10.10;99.90
35541;DHT22;21650;48.840;9.162;2023-03-31T07:07:37;10.10;99.90
35541;DHT22;21650;48.840;9.162;2023-03-31T07:10:03;10.10;99.90
35541;DHT22;21650;48.840;9.162;2023-03-31T07:12:31;10.10;99.90
35541;DHT22;21650;48.840;9.162;2023-03-31T07:14:57;10.10;99.90
35541;DHT22;21650;48.840;9.162;2023-03-31T07:17:22;10.10;99.90
35541;DHT22;21650;48.840;9.162;2023-03-31T07:19:49;10.20;99.90
35541;DHT22;21650;48.840;9.162;2023-03-31T07:22:15;10.20;99.90
35541;DHT22;21650;48.840;9.162;2023-03-31T07:24:41;10.30;99.90
35541;DHT22;21650;48.840;9.162;2023-03-31T07:27:06;10.30;99.90
35541;DHT22;21650;48.840;9.162;2023-03-31T07:29:32;10.30;99.90
35541;DHT22;21650;48.840;9.162;2023-03-31T07:31:57;10.30;99.90
35541;DHT22;21650;48.840;9.162;2023-03-31T07:34:23;10.40;99.90
35541;DHT22;21650;48.840;9.162;2023-03-31T07:36:48;10.40;99.90
35541;DHT22;21650;48.840;9.162;2023-03-31T07:39:14;10.50;99.90
35541;DHT22;21650;48.840;9.162;2023-03-31T07:41:39;10.50;99.90
35541;DHT22;21650;48.840;9.162;2023-03-31T07:44:06;10.60;99.90
35541;DHT22;21650;48.840;9.162;2023-03-31T07:46:31;10.60;99.90
35541;DHT22;21650;48.840;9.162;2023-03-31T07:48:57;10.60;99.90
35541;DHT22;21650;48.840;9.162;2023-03-31T07:51:25;10.70;99.90
35541;DHT22;21650;48.840;9.162;2023-03-31T07:53:51;10.80;99.90
35541;DHT22;21650;48.840;9.162;2023-03-31T07:56:19;10.90;99.90
35541;DHT22;21650;48.840;9.162;2023-03-31T07:58:45;11.00;99.90
35541;DHT22;21650;48.840;9.162;2023-03-31T08:01:15;11.10;99.90
35541;DHT22;21650;48.840;9.162;2023-03-31T08:03:42;11.20;99.90
35541;DHT22;21650;48.840;9.162;2023-03-31T08:06:07;11.30;99.90
35541;DHT22;21650;48.840;9.162;2023-03-31T08:08:33;11.40;99.90
35541;DHT22;21650;48.840;9.162;2023-03-31T08:10:58;11.50;99.90
35541;DHT22;21650;48.840;9.162;2023-03-31T08:13:24;11.60;99.90
35541;DHT22;21650;48.840;9.162;2023-03-31T08:15:50;11.70;99.90
35541;DHT22;21650;48.840;9.162;2023-03-31T08:18:16;11.80;99.90
35541;DHT22;21650;48.840;9.162;2023-03-31T08:20:41;11.80;99.90
35541;DHT22;21650;48.840;9.162;2023-03-31T08:23:07;11.90;99.90
35541;DHT22;21650;48.840;9.162;2023-03-31T08:25:36;12.00;99.90
35541;DHT22;21650;48.840;9.162;2023-03-31T08:28:01;12.00;99.90
35541;DHT22;21650;48.840;9.162;2023-03-31T08:30:27;12.20;99.90
35541;DHT22;21650;48.840;9.162;2023-03-31T08:32:52;12.20;99.90
35541;DHT22;21650;48.840;9.162;2023-03-31T08:35:18;12.40;99.90
35541;DHT22;21650;48.840;9.162;2023-03-31T08:37:43;12.40;99.90
35541;DHT22;21650;48.840;9.162;2023-03-31T08:40:21;12.40;99.90
35541;DHT22;21650;48.840;9.162;2023-03-31T08:43:01;12.50;99.90
35541;DHT22;21650;48.840;9.162;2023-03-31T08:45:36;12.70;99.90
35541;DHT22;21650;48.840;9.162;2023-03-31T08:48:29;12.70;99.90
35541;DHT22;21650;48.840;9.162;2023-03-31T08:51:09;12.80;99.90
35541;DHT22;21650;48.840;9.162;2023-03-31T08:53:43;12.90;99.90
35541;DHT22;21650;48.840;9.162;2023-03-31T08:56:18;13.00;99.90
35541;DHT22;21650;48.840;9.162;2023-03-31T08:58:50;13.40;99.90
35541;DHT22;21650;48.840;9.162;2023-03-31T09:01:25;14.80;99.90
35541;DHT22;21650;48.840;9.162;2023-03-31T09:07:51;15.40;99.90
35541;DHT22;21650;48.840;9.162;2023-03-31T09:10:56;15.20;99.90
35541;DHT22;21650;48.840;9.162;2023-03-31T09:13:37;15.40;99.90
35541;DHT22;21650;48.840;9.162;2023-03-31T09:16:15;14.90;99.90
35541;DHT22;21650;48.840;9.162;2023-03-31T09:18:42;14.90;99.90
35541;DHT22;21650;48.840;9.162;2023-03-31T09:21:36;15.00;99.90
35541;DHT22;21650;48.840;9.162;2023-03-31T09:24:26;15.20;99.90
35541;DHT22;21650;48.840;9.162;2023-03-31T09:26:59;15.30;99.90
35541;DHT22;21650;48.840;9.162;2023-03-31T09:32:00;15.50;99.90
35541;DHT22;21650;48.840;9.162;2023-03-31T09:34:33;15.50;99.90
35541;DHT22;21650;48.840;9.162;2023-03-31T09:36:58;15.30;99.90
35541;DHT22;21650;48.840;9.162;2023-03-31T09:39:24;15.20;99.90
35541;DHT22;21650;48.840;9.162;2023-03-31T09:41:51;15.00;99.90
35541;DHT22;21650;48.840;9.162;2023-03-31T09:44:40;14.80;99.90
35541;DHT22;21650;48.840;9.162;2023-03-31T09:47:14;14.50;99.90
35541;DHT22;21650;48.840;9.162;2023-03-31T09:49:44;14.60;99.90
35541;DHT22;21650;48.840;9.162;2023-03-31T09:54:52;15.20;99.90
35541;DHT22;21650;48.840;9.162;2023-03-31T09:57:38;15.10;99.90
35541;DHT22;21650;48.840;9.162;2023-03-31T10:02:42;14.90;99.90
35541;DHT22;21650;48.840;9.162;2023-03-31T10:05:25;15.20;99.90
35541;DHT22;21650;48.840;9.162;2023-03-31T10:08:16;15.40;99.90
35541;DHT22;21650;48.840;9.162;2023-03-31T10:10:44;15.10;99.90
35541;DHT22;21650;48.840;9.162;2023-03-31T10:13:18;15.10;99.90
35541;DHT22;21650;48.840;9.162;2023-03-31T10:15:45;15.40;99.90
35541;DHT22;21650;48.840;9.162;2023-03-31T10:18:16;16.10;99.90
35541;DHT22;21650;48.840;9.162;2023-03-31T10:20:44;16.30;99.90
35541;DHT22;21650;48.840;9.162;2023-03-31T10:23:28;16.40;99.90
35541;DHT22;21650;48.840;9.162;2023-03-31T10:25:55;16.40;99.80
35541;DHT22;21650;48.840;9.162;2023-03-31T10:28:21;16.30;99.90
35541;DHT22;21650;48.840;9.162;2023-03-31T10:30:57;16.20;99.90
35541;DHT22;21650;48.840;9.162;2023-03-31T10:33:29;16.60;99.90
35541;DHT22;21650;48.840;9.162;2023-03-31T10:36:24;16.30;99.90
35541;DHT22;21650;48.840;9.162;2023-03-31T10:38:51;16.30;99.90
35541;DHT22;21650;48.840;9.162;2023-03-31T10:41:19;16.40;99.90
35541;DHT22;21650;48.840;9.162;2023-03-31T10:43:51;16.30;99.90
35541;DHT22;21650;48.840;9.162;2023-03-31T10:46:17;16.40;99.90
35541;DHT22;21650;48.840;9.162;2023-03-31T10:48:43;16.10;99.90
35541;DHT22;21650;48.840;9.162;2023-03-31T10:51:21;16.20;99.90
35541;DHT22;21650;48.840;9.162;2023-03-31T10:53:51;16.20;99.90
35541;DHT22;21650;48.840;9.162;2023-03-31T10:56:42;15.60;99.00
35541;DHT22;21650;48.840;9.162;2023-03-31T11:05:01;15.50;99.70
35541;DHT22;21650;48.840;9.162;2023-03-31T11:07:48;15.50;99.90
35541;DHT22;21650;48.840;9.162;2023-03-31T11:10:41;15.50;99.20
35541;DHT22;21650;48.840;9.162;2023-03-31T11:16:32;15.10;99.90
35541;DHT22;21650;48.840;9.162;2023-03-31T11:22:02;14.30;99.90
35541;DHT22;21650;48.840;9.162;2023-03-31T11:25:03;13.50;99.90
35541;DHT22;21650;48.840;9.162;2023-03-31T11:27:49;12.40;99.90
35541;DHT22;21650;48.840;9.162;2023-03-31T11:30:21;11.20;99.90
35541;DHT22;21650;48.840;9.162;2023-03-31T11:38:43;10.70;99.90
35541;DHT22;21650;48.840;9.162;2023-03-31T11:41:35;10.60;99.90
35541;DHT22;21650;48.840;9.162;2023-03-31T11:44:04;10.70;99.90
35541;DHT22;21650;48.840;9.162;2023-03-31T11:46:58;10.80;99.90
35541;DHT22;21650;48.840;9.162;2023-03-31T11:49:36;10.90;99.90
35541;DHT22;21650;48.840;9.162;2023-03-31T11:52:14;11.10;99.90
35541;DHT22;21650;48.840;9.162;2023-03-31T11:54:52;11.20;99.90
35541;DHT22;21650;48.840;9.162;2023-03-31T12:00:08;11.40;99.90
35541;DHT22;21650;48.840;9.162;2023-03-31T12:02:38;11.40;99.90
35541;DHT22;21650;48.840;9.162;2023-03-31T12:05:06;11.30;99.90
35541;DHT22;21650;48.840;9.162;2023-03-31T12:08:06;11.30;99.90
35541;DHT22;21650;48.840;9.162;2023-03-31T12:10:38;11.50;99.90
35541;DHT22;21650;48.840;9.162;2023-03-31T12:13:33;11.80;99.90
35541;DHT22;21650;48.840;9.162;2023-03-31T12:16:08;12.40;99.90
35541;DHT22;21650;48.840;9.162;2023-03-31T12:18:41;12.80;99.90
35541;DHT22;21650;48.840;9.162;2023-03-31T12:21:08;13.00;99.90
35541;DHT22;21650;48.840;9.162;2023-03-31T12:23:39;12.90;99.90
35541;DHT22;21650;48.840;9.162;2023-03-31T12:28:37;13.40;99.90
35541;DHT22;21650;48.840;9.162;2023-03-31T12:31:07;13.50;99.90
35541;DHT22;21650;48.840;9.162;2023-03-31T12:33:39;13.70;99.90
35541;DHT22;21650;48.840;9.162;2023-03-31T12:45:01;14.70;99.90
35541;DHT22;21650;48.840;9.162;2023-03-31T12:50:35;14.90;99.90
35541;DHT22;21650;48.840;9.162;2023-03-31T12:53:21;15.10;99.90
35541;DHT22;21650;48.840;9.162;2023-03-31T12:55:49;15.20;99.90
35541;DHT22;21650;48.840;9.162;2023-03-31T13:03:49;15.50;99.90
35541;DHT22;21650;48.840;9.162;2023-03-31T13:08:57;15.80;99.90
35541;DHT22;21650;48.840;9.162;2023-03-31T13:14:15;15.10;99.90
35541;DHT22;21650;48.840;9.162;2023-03-31T13:16:42;14.50;99.90
35541;DHT22;21650;48.840;9.162;2023-03-31T13:19:12;14.00;99.90
35541;DHT22;21650;48.840;9.162;2023-03-31T13:21:52;14.00;99.90
35541;DHT22;21650;48.840;9.162;2023-03-31T13:24:21;13.40;99.90
35541;DHT22;21650;48.840;9.162;2023-03-31T13:26:48;12.90;99.90
35541;DHT22;21650;48.840;9.162;2023-03-31T13:34:28;12.50;99.90
35541;DHT22;21650;48.840;9.162;2023-03-31T13:40:27;12.70;99.90
35541;DHT22;21650;48.840;9.162;2023-03-31T13:43:24;12.80;99.90
35541;DHT22;21650;48.840;9.162;2023-03-31T13:46:01;12.40;99.90
35541;DHT22;21650;48.840;9.162;2023-03-31T13:51:31;12.10;99.90
35541;DHT22;21650;48.840;9.162;2023-03-31T14:02:26;11.60;99.90
35541;DHT22;21650;48.840;9.162;2023-03-31T14:07:43;11.40;99.90
35541;DHT22;21650;48.840;9.162;2023-03-31T14:12:50;11.60;99.90
35541;DHT22;21650;48.840;9.162;2023-03-31T14:15:19;11.80;99.90
35541;DHT22;21650;48.840;9.162;2023-03-31T14:17:45;12.20;99.90
35541;DHT22;21650;48.840;9.162;2023-03-31T14:23:07;13.30;99.90
35541;DHT22;21650;48.840;9.162;2023-03-31T14:28:40;13.70;99.90
35541;DHT22;21650;48.840;9.162;2023-03-31T14:31:14;13.90;99.90
35541;DHT22;21650;48.840;9.162;2023-03-31T14:39:13;13.50;99.90
35541;DHT22;21650;48.840;9.162;2023-03-31T14:41:40;13.70;99.90
35541;DHT22;21650;48.840;9.162;2023-03-31T14:44:13;14.10;99.90
35541;DHT22;21650;48.840;9.162;2023-03-31T14:46:40;14.40;99.90
35541;DHT22;21650;48.840;9.162;2023-03-31T14:49:33;14.50;99.90
35541;DHT22;21650;48.840;9.162;2023-03-31T14:52:00;14.70;99.90
35541;DHT22;21650;48.840;9.162;2023-03-31T14:54:33;14.90;99.90
35541;DHT22;21650;48.840;9.162;2023-03-31T14:57:03;15.00;99.90
35541;DHT22;21650;48.840;9.162;2023-03-31T14:59:31;15.40;99.90
35541;DHT22;21650;48.840;9.162;2023-03-31T15:02:00;15.20;99.90
35541;DHT22;21650;48.840;9.162;2023-03-31T15:04:29;15.20;99.90
35541;DHT22;21650;48.840;9.162;2023-03-31T15:06:56;14.90;99.90
35541;DHT22;21650;48.840;9.162;2023-03-31T15:09:29;14.60;99.90
35541;DHT22;21650;48.840;9.162;2023-03-31T15:11:58;14.80;99.90
35541;DHT22;21650;48.840;9.162;2023-03-31T15:14:29;14.80;99.90
35541;DHT22;21650;48.840;9.162;2023-03-31T15:16:55;14.90;99.90
35541;DHT22;21650;48.840;9.162;2023-03-31T15:19:27;15.00;99.90
35541;DHT22;21650;48.840;9.162;2023-03-31T15:22:14;15.20;99.90
35541;DHT22;21650;48.840;9.162;2023-03-31T15:24:40;15.30;99.90
35541;DHT22;21650;48.840;9.162;2023-03-31T15:29:42;16.00;99.90
35541;DHT22;21650;48.840;9.162;2023-03-31T15:32:16;16.10;99.90
35541;DHT22;21650;48.840;9.162;2023-03-31T15:34:43;15.20;99.90
35541;DHT22;21650;48.840;9.162;2023-03-31T15:37:10;15.20;99.90
35541;DHT22;21650;48.840;9.162;2023-03-31T15:39:37;15.10;99.90
35541;DHT22;21650;48.840;9.162;2023-03-31T15:42:04;14.30;99.90
35541;DHT22;21650;48.840;9.162;2023-03-31T15:44:46;13.90;99.90
35541;DHT22;21650;48.840;9.162;2023-03-31T15:47:23;13.90;99.90
35541;DHT22;21650;48.840;9.162;2023-03-31T15:49:54;13.90;99.90
35541;DHT22;21650;48.840;9.162;2023-03-31T15:52:31;13.80;99.90
35541;DHT22;21650;48.840;9.162;2023-03-31T15:54:58;13.70;99.90
35541;DHT22;21650;48.840;9.162;2023-03-31T15:57:33;13.70;99.90
35541;DHT22;21650;48.840;9.162;2023-03-31T15:59:59;13.60;99.90
35541;DHT22;21650;48.840;9.162;2023-03-31T16:02:45;13.50;99.90
35541;DHT22;21650;48.840;9.162;2023-03-31T16:05:41;13.40;99.90
35541;DHT22;21650;48.840;9.162;2023-03-31T16:08:14;13.30;99.90
35541;DHT22;21650;48.840;9.162;2023-03-31T16:10:42;13.20;99.90
35541;DHT22;21650;48.840;9.162;2023-03-31T16:13:10;13.10;99.90
35541;DHT22;21650;48.840;9.162;2023-03-31T16:15:39;13.10;99.90
35541;DHT22;21650;48.840;9.162;2023-03-31T16:18:10;13.00;99.90
35541;DHT22;21650;48.840;9.162;2023-03-31T16:20:41;12.90;99.90
35541;DHT22;21650;48.840;9.162;2023-03-31T16:23:23;12.80;99.90
35541;DHT22;21650;48.840;9.162;2023-03-31T16:25:49;12.80;99.90
35541;DHT22;21650;48.840;9.162;2023-03-31T16:28:18;12.60;99.90
35541;DHT22;21650;48.840;9.162;2023-03-31T16:30:45;12.60;99.90
35541;DHT22;21650;48.840;9.162;2023-03-31T16:35:40;12.50;99.90
35541;DHT22;21650;48.840;9.162;2023-03-31T16:38:08;12.40;99.90
35541;DHT22;21650;48.840;9.162;2023-03-31T16:40:39;12.30;99.90
35541;DHT22;21650;48.840;9.162;2023-03-31T16:43:21;12.20;99.90
35541;DHT22;21650;48.840;9.162;2023-03-31T16:45:51;12.10;99.90
35541;DHT22;21650;48.840;9.162;2023-03-31T16:48:20;12.10;99.90
35541;DHT22;21650;48.840;9.162;2023-03-31T16:50:48;11.90;99.90
35541;DHT22;21650;48.840;9.162;2023-03-31T16:53:17;11.90;99.90
35541;DHT22;21650;48.840;9.162;2023-03-31T16:55:43;11.90;99.90
35541;DHT22;21650;48.840;9.162;2023-03-31T16:58:08;11.80;99.90
35541;DHT22;21650;48.840;9.162;2023-03-31T17:00:34;11.90;99.90
35541;DHT22;21650;48.840;9.162;2023-03-31T17:03:02;11.90;99.90
35541;DHT22;21650;48.840;9.162;2023-03-31T17:05:28;11.80;99.90
35541;DHT22;21650;48.840;9.162;2023-03-31T17:07:56;11.70;99.90
35541;DHT22;21650;48.840;9.162;2023-03-31T17:10:22;11.70;99.90
35541;DHT22;21650;48.840;9.162;2023-03-31T17:12:48;11.70;99.90
35541;DHT22;21650;48.840;9.162;2023-03-31T17:15:14;11.60;99.90
35541;DHT22;21650;48.840;9.162;2023-03-31T17:17:40;11.60;99.90
35541;DHT22;21650;48.840;9.162;2023-03-31T17:20:06;11.60;99.90
35541;DHT22;21650;48.840;9.162;2023-03-31T17:22:32;11.50;99.90
35541;DHT22;21650;48.840;9.162;2023-03-31T17:24:58;11.40;99.90
35541;DHT22;21650;48.840;9.162;2023-03-31T17:27:25;11.40;99.90
35541;DHT22;21650;48.840;9.162;2023-03-31T17:29:51;11.30;99.90
35541;DHT22;21650;48.840;9.162;2023-03-31T17:32:17;11.40;99.90
35541;DHT22;21650;48.840;9.162;2023-03-31T17:34:43;11.30;99.90
35541;DHT22;21650;48.840;9.162;2023-03-31T17:37:09;11.30;99.90
35541;DHT22;21650;48.840;9.162;2023-03-31T17:39:35;11.20;99.90
35541;DHT22;21650;48.840;9.162;2023-03-31T17:42:01;11.10;99.90
35541;DHT22;21650;48.840;9.162;2023-03-31T17:44:28;11.20;99.90
35541;DHT22;21650;48.840;9.162;2023-03-31T17:46:54;11.10;99.90
35541;DHT22;21650;48.840;9.162;2023-03-31T17:49:19;11.10;99.90
35541;DHT22;21650;48.840;9.162;2023-03-31T17:51:45;11.20;99.90
35541;DHT22;21650;48.840;9.162;2023-03-31T17:54:11;11.10;99.90
35541;DHT22;21650;48.840;9.162;2023-03-31T17:56:36;11.00;99.90
35541;DHT22;21650;48.840;9.162;2023-03-31T17:59:03;11.00;99.90